Time;durP1;ratioP1;P1;durP2;ratioP2;P2;SDS_P1;SDS_P2;PMS_P1;PMS_P2;Temp;Humidity;BMP_temperature;BMP_pressure;BME280_temperature;BME280_humidity;BME280_pressure;Samples;Min_cycle;Max_cycle;Signal;HPM_P1;HPM_P2
2022/03/08 00:00:26;;;;;;;31.30;6.85;;;;;;;;;;5055578;28;20056;-69
2022/03/08 00:02:54;;;;;;;27.08;6.70;;;;;;;;;;5056988;28;20037;-65
2022/03/08 00:05:20;;;;;;;28.67;6.82;;;;;;;;;;5063622;28;20056;-69
2022/03/08 00:07:47;;;;;;;24.17;6.40;;;;;;;;;;5061087;28;20513;-68
2022/03/08 00:10:13;;;;;;;29.15;7.20;;;;;;;;;;5062706;28;20028;-68
2022/03/08 00:12:39;;;;;;;26.30;6.47;;;;;;;;;;5059313;28;20033;-69
2022/03/08 00:15:10;;;;;;;25.02;6.68;;;;;;;;;;5042359;28;20087;-72
2022/03/08 00:17:36;;;;;;;24.05;6.05;;;;;;;;;;5060457;28;20112;-61
2022/03/08 00:20:03;;;;;;;24.00;5.90;;;;;;;;;;5055177;28;20393;-66
2022/03/08 00:22:29;;;;;;;22.15;6.07;;;;;;;;;;5057815;28;20477;-71
2022/03/08 00:24:55;;;;;;;34.50;7.00;;;;;;;;;;5055876;28;20013;-68
2022/03/08 00:27:21;;;;;;;28.42;6.88;;;;;;;;;;5062003;28;20025;-61
2022/03/08 00:29:48;;;;;;;26.08;7.50;;;;;;;;;;5068761;28;20488;-72
2022/03/08 00:32:14;;;;;;;30.20;7.63;;;;;;;;;;5062929;28;20048;-73
2022/03/08 00:34:40;;;;;;;30.92;7.32;;;;;;;;;;5053602;28;20363;-69
2022/03/08 00:37:06;;;;;;;27.15;6.95;;;;;;;;;;5053473;28;20029;-70
2022/03/08 00:39:32;;;;;;;35.10;7.65;;;;;;;;;;5060319;28;20113;-60
2022/03/08 00:41:58;;;;;;;30.95;7.70;;;;;;;;;;5050862;28;20036;-60
2022/03/08 00:44:24;;;;;;;31.40;7.78;;;;;;;;;;5058222;28;20070;-59
2022/03/08 00:46:50;;;;;;;34.25;7.47;;;;;;;;;;5059518;28;20508;-61
2022/03/08 00:49:16;;;;;;;42.92;7.70;;;;;;;;;;5063180;28;20028;-65
2022/03/08 00:51:42;;;;;;;45.90;9.45;;;;;;;;;;5062920;28;20489;-70
2022/03/08 00:54:08;;;;;;;129.35;89.32;;;;;;;;;;5047518;28;20048;-69
2022/03/08 00:56:34;;;;;;;140.88;86.13;;;;;;;;;;5056480;28;20389;-62
2022/03/08 00:59:00;;;;;;;72.82;19.67;;;;;;;;;;5054448;28;20024;-67
2022/03/08 01:01:26;;;;;;;76.43;11.82;;;;;;;;;;5034111;28;20064;-65
2022/03/08 01:03:52;;;;;;;54.35;9.18;;;;;;;;;;5061698;28;20516;-62
2022/03/08 01:06:18;;;;;;;42.65;9.82;;;;;;;;;;5056497;28;20486;-66
2022/03/08 01:08:45;;;;;;;38.42;9.32;;;;;;;;;;5057316;28;20017;-63
2022/03/08 01:11:11;;;;;;;41.53;9.95;;;;;;;;;;5050926;28;20044;-64
2022/03/08 01:13:37;;;;;;;48.10;11.10;;;;;;;;;;5057650;28;20013;-61
2022/03/08 01:16:03;;;;;;;32.13;10.52;;;;;;;;;;5055240;28;20548;-58
2022/03/08 01:18:29;;;;;;;41.65;10.52;;;;;;;;;;5068654;28;20074;-62
2022/03/08 01:20:55;;;;;;;40.47;10.13;;;;;;;;;;5069070;28;20068;-59
2022/03/08 01:23:21;;;;;;;42.13;9.70;;;;;;;;;;5055427;28;20029;-61
2022/03/08 01:25:47;;;;;;;36.72;8.85;;;;;;;;;;5053760;28;20032;-57
2022/03/08 01:28:13;;;;;;;34.83;8.98;;;;;;;;;;5057426;28;20038;-60
2022/03/08 01:30:39;;;;;;;34.90;8.88;;;;;;;;;;5037893;28;20027;-58
2022/03/08 01:33:06;;;;;;;36.55;8.23;;;;;;;;;;5034533;28;20094;-60
2022/03/08 01:35:34;;;;;;;38.25;10.05;;;;;;;;;;5053247;28;20047;-56
2022/03/08 01:38:00;;;;;;;27.27;7.82;;;;;;;;;;5057892;28;20025;-63
2022/03/08 01:40:26;;;;;;;28.13;7.50;;;;;;;;;;5056991;28;20074;-59
2022/03/08 01:42:52;;;;;;;33.08;7.75;;;;;;;;;;5058233;28;20029;-65
2022/03/08 01:45:24;;;;;;;30.70;7.75;;;;;;;;;;5057926;28;20017;-63
2022/03/08 01:47:51;;;;;;;29.23;7.47;;;;;;;;;;5061080;28;20029;-63
2022/03/08 01:50:17;;;;;;;28.92;7.13;;;;;;;;;;5059551;28;20032;-59
2022/03/08 01:52:43;;;;;;;27.23;7.20;;;;;;;;;;5056476;28;20029;-59
2022/03/08 01:55:11;;;;;;;23.20;6.75;;;;;;;;;;5031381;28;20405;-60
2022/03/08 01:57:37;;;;;;;27.75;6.95;;;;;;;;;;5057462;28;20025;-65
2022/03/08 02:00:05;;;;;;;22.90;6.45;;;;;;;;;;5063812;28;20131;-66
2022/03/08 02:02:31;;;;;;;23.83;6.45;;;;;;;;;;5051806;28;20512;-63
2022/03/08 02:04:58;;;;;;;24.63;6.10;;;;;;;;;;5063953;28;20085;-61
2022/03/08 02:07:24;;;;;;;23.65;6.78;;;;;;;;;;5061727;28;20484;-64
2022/03/08 02:09:50;;;;;;;19.85;6.03;;;;;;;;;;5089883;28;20028;-65
2022/03/08 02:12:16;;;;;;;24.73;6.40;;;;;;;;;;5058472;28;20029;-65
2022/03/08 02:14:43;;;;;;;20.90;6.25;;;;;;;;;;5064516;28;20074;-67
2022/03/08 02:17:09;;;;;;;19.55;5.95;;;;;;;;;;5073133;28;20426;-62
2022/03/08 02:19:35;;;;;;;21.75;5.55;;;;;;;;;;5064421;28;20069;-62
2022/03/08 02:22:01;;;;;;;20.08;5.95;;;;;;;;;;5071760;28;20024;-63
2022/03/08 02:24:27;;;;;;;29.48;13.30;;;;;;;;;;5058720;28;20021;-60
2022/03/08 02:26:54;;;;;;;229.98;178.73;;;;;;;;;;5068388;28;20021;-72
2022/03/08 02:29:20;;;;;;;418.42;339.85;;;;;;;;;;5065205;28;20078;-67
2022/03/08 02:31:47;;;;;;;464.45;396.73;;;;;;;;;;5069064;28;20024;-70
2022/03/08 02:34:14;;;;;;;462.60;399.00;;;;;;;;;;5066518;28;20025;-59
2022/03/08 02:36:41;;;;;;;453.67;386.95;;;;;;;;;;5064621;28;20071;-71
2022/03/08 02:39:07;;;;;;;413.45;341.80;;;;;;;;;;5067015;28;20039;-66
2022/03/08 02:41:34;;;;;;;380.73;314.55;;;;;;;;;;5066730;28;20033;-63
2022/03/08 02:44:00;;;;;;;368.35;308.00;;;;;;;;;;5058780;28;20421;-69
2022/03/08 02:46:26;;;;;;;349.25;288.75;;;;;;;;;;5068083;28;20032;-63
2022/03/08 02:48:52;;;;;;;313.33;261.55;;;;;;;;;;5058746;28;20028;-68
2022/03/08 02:51:20;;;;;;;288.40;234.73;;;;;;;;;;5060634;28;20074;-67
2022/03/08 02:53:46;;;;;;;284.98;234.75;;;;;;;;;;5071636;28;20060;-63
2022/03/08 02:56:12;;;;;;;246.13;200.30;;;;;;;;;;5058995;28;20033;-71
2022/03/08 02:58:38;;;;;;;262.42;214.43;;;;;;;;;;5059307;28;20501;-74
2022/03/08 03:01:04;;;;;;;240.73;190.32;;;;;;;;;;5060225;28;20420;-61
2022/03/08 03:03:31;;;;;;;262.92;151.20;;;;;;;;;;5064565;28;20055;-58
2022/03/08 03:05:57;;;;;;;237.27;133.88;;;;;;;;;;5073734;28;20048;-66
2022/03/08 03:08:23;;;;;;;193.35;125.07;;;;;;;;;;5066502;28;20032;-67
2022/03/08 03:10:49;;;;;;;194.48;124.93;;;;;;;;;;5066609;28;20420;-74
2022/03/08 03:13:15;;;;;;;167.43;122.82;;;;;;;;;;5064331;28;20470;-73
2022/03/08 03:15:41;;;;;;;190.15;120.28;;;;;;;;;;5067247;28;20021;-57
2022/03/08 03:18:10;;;;;;;177.45;119.13;;;;;;;;;;5057589;28;20033;-58
2022/03/08 03:20:37;;;;;;;176.35;114.60;;;;;;;;;;5067362;28;20123;-60
2022/03/08 03:23:03;;;;;;;162.57;114.05;;;;;;;;;;5060885;28;20063;-73
2022/03/08 03:25:29;;;;;;;160.52;108.22;;;;;;;;;;5054704;28;20036;-70
2022/03/08 03:27:55;;;;;;;140.45;102.72;;;;;;;;;;5055414;28;20066;-71
2022/03/08 03:30:21;;;;;;;136.90;100.25;;;;;;;;;;5053299;28;20489;-66
2022/03/08 03:32:47;;;;;;;141.68;101.00;;;;;;;;;;5052479;28;20063;-65
2022/03/08 03:35:14;;;;;;;135.70;94.47;;;;;;;;;;5061067;28;20032;-75
2022/03/08 03:37:40;;;;;;;124.25;90.70;;;;;;;;;;5075094;28;20030;-64
2022/03/08 03:40:06;;;;;;;115.93;84.57;;;;;;;;;;5068754;28;20119;-75
2022/03/08 03:42:33;;;;;;;119.55;86.07;;;;;;;;;;5059885;28;20029;-71
2022/03/08 03:44:59;;;;;;;115.72;84.85;;;;;;;;;;5073808;28;20078;-67
2022/03/08 03:47:25;;;;;;;117.22;76.82;;;;;;;;;;5075098;28;20362;-73
2022/03/08 03:49:51;;;;;;;103.43;75.80;;;;;;;;;;5066831;28;20379;-75
2022/03/08 03:52:17;;;;;;;106.03;76.32;;;;;;;;;;5061931;28;20103;-74
2022/03/08 03:54:43;;;;;;;96.80;71.93;;;;;;;;;;5055870;28;20024;-74
2022/03/08 03:57:11;;;;;;;93.68;69.28;;;;;;;;;;5073850;28;20096;-75
2022/03/08 03:59:37;;;;;;;93.95;69.13;;;;;;;;;;5069277;28;20024;-59
2022/03/08 04:02:04;;;;;;;87.32;65.88;;;;;;;;;;5054504;28;20040;-75
2022/03/08 04:04:30;;;;;;;89.80;66.00;;;;;;;;;;5070686;28;20024;-63
2022/03/08 04:06:56;;;;;;;77.40;61.42;;;;;;;;;;5074149;28;20129;-73
2022/03/08 04:09:22;;;;;;;77.55;59.88;;;;;;;;;;5071045;28;20116;-67
2022/03/08 04:11:48;;;;;;;81.85;60.30;;;;;;;;;;5053948;28;20057;-74
2022/03/08 04:14:15;;;;;;;77.53;57.50;;;;;;;;;;5038373;28;20389;-58
2022/03/08 04:16:41;;;;;;;74.80;56.25;;;;;;;;;;5053947;28;20120;-64
2022/03/08 04:19:07;;;;;;;71.00;52.88;;;;;;;;;;5054038;28;20025;-58
2022/03/08 04:21:33;;;;;;;62.72;51.03;;;;;;;;;;5054832;28;20045;-74
2022/03/08 04:23:59;;;;;;;64.60;50.38;;;;;;;;;;5068871;28;20016;-66
2022/03/08 04:26:25;;;;;;;64.35;50.50;;;;;;;;;;5055629;28;20124;-71
2022/03/08 04:28:51;;;;;;;67.05;50.10;;;;;;;;;;5059845;28;20029;-59
2022/03/08 04:31:17;;;;;;;63.22;46.75;;;;;;;;;;5053737;28;20109;-72
2022/03/08 04:33:44;;;;;;;63.38;46.45;;;;;;;;;;5053910;28;20496;-66
2022/03/08 04:36:10;;;;;;;57.50;45.17;;;;;;;;;;5056581;28;20020;-71
2022/03/08 04:38:36;;;;;;;59.35;44.40;;;;;;;;;;5063184;28;20350;-63
2022/03/08 04:41:05;;;;;;;54.75;42.33;;;;;;;;;;5073260;28;20423;-75
2022/03/08 04:43:32;;;;;;;52.17;41.22;;;;;;;;;;5073076;28;20029;-60
2022/03/08 04:45:58;;;;;;;49.85;39.85;;;;;;;;;;5073403;28;20029;-62
2022/03/08 04:48:24;;;;;;;50.75;38.50;;;;;;;;;;5070126;28;20052;-72
2022/03/08 04:50:50;;;;;;;51.50;38.97;;;;;;;;;;5053386;28;20040;-69
2022/03/08 04:53:16;;;;;;;50.90;37.90;;;;;;;;;;5053398;28;20025;-68
2022/03/08 04:55:42;;;;;;;47.70;36.15;;;;;;;;;;5056628;28;20389;-68
2022/03/08 04:58:08;;;;;;;49.60;35.47;;;;;;;;;;5066451;28;20021;-60
2022/03/08 05:00:34;;;;;;;45.88;35.00;;;;;;;;;;5067141;28;20481;-65
2022/03/08 05:03:00;;;;;;;43.40;33.47;;;;;;;;;;5072498;28;20025;-75
2022/03/08 05:05:29;;;;;;;44.00;32.97;;;;;;;;;;5053264;28;20036;-59
2022/03/08 05:07:55;;;;;;;45.55;33.45;;;;;;;;;;5035341;28;20021;-68
2022/03/08 05:10:21;;;;;;;43.17;30.63;;;;;;;;;;5056473;28;20110;-76
2022/03/08 05:12:47;;;;;;;41.25;29.15;;;;;;;;;;5060071;28;20043;-68
2022/03/08 05:15:14;;;;;;;40.47;30.02;;;;;;;;;;5073447;28;20021;-63
2022/03/08 05:17:40;;;;;;;40.47;29.73;;;;;;;;;;5072898;28;20032;-60
2022/03/08 05:20:06;;;;;;;39.25;27.92;;;;;;;;;;5059957;28;20064;-74
2022/03/08 05:22:32;;;;;;;40.22;27.25;;;;;;;;;;5041731;28;20103;-62
2022/03/08 05:24:58;;;;;;;37.50;27.10;;;;;;;;;;5072524;28;20486;-61
2022/03/08 05:27:24;;;;;;;38.95;26.48;;;;;;;;;;5072227;28;20097;-73
2022/03/08 05:29:50;;;;;;;37.10;26.02;;;;;;;;;;5072475;28;20023;-72
2022/03/08 05:32:17;;;;;;;38.05;25.05;;;;;;;;;;5070910;28;20048;-68
2022/03/08 05:34:43;;;;;;;37.83;24.38;;;;;;;;;;5073076;28;20386;-73
2022/03/08 05:37:09;;;;;;;34.33;22.85;;;;;;;;;;5072877;28;20033;-71
2022/03/08 05:39:35;;;;;;;34.45;23.00;;;;;;;;;;5070634;28;20488;-73
2022/03/08 05:42:01;;;;;;;34.28;22.00;;;;;;;;;;5072695;28;20042;-73
2022/03/08 05:44:27;;;;;;;32.53;21.40;;;;;;;;;;5072882;28;20033;-72
2022/03/08 05:46:53;;;;;;;33.30;21.08;;;;;;;;;;5072661;28;20037;-61
2022/03/08 05:49:19;;;;;;;32.45;20.65;;;;;;;;;;5053297;28;20033;-70
2022/03/08 05:51:45;;;;;;;31.92;20.98;;;;;;;;;;5052747;28;20021;-58
2022/03/08 05:54:11;;;;;;;32.10;19.88;;;;;;;;;;5052644;28;20021;-60
2022/03/08 05:56:37;;;;;;;31.02;19.13;;;;;;;;;;5052586;28;20112;-75
2022/03/08 05:59:03;;;;;;;31.38;19.48;;;;;;;;;;5064571;28;20104;-68
2022/03/08 06:01:29;;;;;;;29.67;18.92;;;;;;;;;;5072093;28;20115;-59
2022/03/08 06:03:55;;;;;;;28.90;18.40;;;;;;;;;;5072998;28;20143;-60
2022/03/08 06:06:21;;;;;;;28.85;17.80;;;;;;;;;;5072481;28;20024;-59
2022/03/08 06:08:49;;;;;;;27.50;16.52;;;;;;;;;;5057699;28;20044;-66
2022/03/08 06:11:16;;;;;;;28.17;17.23;;;;;;;;;;5052170;28;20025;-77
2022/03/08 06:13:42;;;;;;;28.10;16.00;;;;;;;;;;5053546;28;20029;-63
2022/03/08 06:16:08;;;;;;;25.70;15.23;;;;;;;;;;5055891;28;20068;-61
2022/03/08 06:18:34;;;;;;;26.67;15.75;;;;;;;;;;5061740;28;20095;-71
2022/03/08 06:21:00;;;;;;;26.55;14.98;;;;;;;;;;5057031;28;20036;-77
2022/03/08 06:23:26;;;;;;;27.90;15.07;;;;;;;;;;5066128;28;20069;-72
2022/03/08 06:25:52;;;;;;;30.55;15.98;;;;;;;;;;5072502;28;20029;-72
2022/03/08 06:28:19;;;;;;;27.50;15.18;;;;;;;;;;5060517;28;20171;-70
2022/03/08 06:30:45;;;;;;;27.52;14.23;;;;;;;;;;5052437;28;20064;-59
2022/03/08 06:33:11;;;;;;;25.75;13.38;;;;;;;;;;5052287;28;20104;-59
2022/03/08 06:35:37;;;;;;;26.00;13.70;;;;;;;;;;5051950;28;20029;-67
2022/03/08 06:38:03;;;;;;;23.63;12.27;;;;;;;;;;5053229;28;20100;-62
2022/03/08 06:40:30;;;;;;;25.55;11.93;;;;;;;;;;5068547;28;20059;-67
2022/03/08 06:42:56;;;;;;;29.83;12.13;;;;;;;;;;5074494;28;20032;-69
2022/03/08 06:45:22;;;;;;;27.40;12.10;;;;;;;;;;5075896;28;20441;-71
2022/03/08 06:47:48;;;;;;;28.63;11.95;;;;;;;;;;5074162;28;20127;-63
2022/03/08 06:50:14;;;;;;;26.15;10.93;;;;;;;;;;5074865;28;20393;-69
2022/03/08 06:52:40;;;;;;;23.70;11.00;;;;;;;;;;5074707;28;20024;-77
2022/03/08 06:55:06;;;;;;;26.00;10.68;;;;;;;;;;5075416;28;20374;-69
2022/03/08 06:57:32;;;;;;;23.88;10.10;;;;;;;;;;5075306;28;20100;-76
2022/03/08 06:59:58;;;;;;;25.15;10.82;;;;;;;;;;5075503;28;20130;-66
2022/03/08 07:02:26;;;;;;;25.45;10.07;;;;;;;;;;5072137;28;20033;-64
2022/03/08 07:04:52;;;;;;;22.25;9.38;;;;;;;;;;5037244;28;20381;-76
2022/03/08 07:07:18;;;;;;;21.02;9.35;;;;;;;;;;5055473;28;20028;-65
2022/03/08 07:09:44;;;;;;;21.27;9.43;;;;;;;;;;5055396;28;20022;-58
2022/03/08 07:12:10;;;;;;;22.55;9.40;;;;;;;;;;5073549;28;20016;-59
2022/03/08 07:14:36;;;;;;;21.17;8.98;;;;;;;;;;5074168;28;20035;-60
2022/03/08 07:17:03;;;;;;;22.30;9.05;;;;;;;;;;5073364;28;20035;-58
2022/03/08 07:19:29;;;;;;;21.45;8.60;;;;;;;;;;5074715;28;20141;-59
2022/03/08 07:21:55;;;;;;;21.05;8.82;;;;;;;;;;5075131;28;20507;-64
2022/03/08 07:24:21;;;;;;;23.15;8.60;;;;;;;;;;5075169;28;20020;-67
2022/03/08 07:26:47;;;;;;;19.85;8.00;;;;;;;;;;5064586;28;20494;-62
2022/03/08 07:29:13;;;;;;;21.98;8.00;;;;;;;;;;5069510;28;20031;-60
2022/03/08 07:31:39;;;;;;;23.08;7.90;;;;;;;;;;5075087;28;20035;-62
2022/03/08 07:34:05;;;;;;;22.70;7.43;;;;;;;;;;5074817;28;20381;-59
2022/03/08 07:36:31;;;;;;;19.08;7.38;;;;;;;;;;5074822;28;20060;-58
2022/03/08 07:38:57;;;;;;;20.05;7.50;;;;;;;;;;5059315;28;20036;-59
2022/03/08 07:41:23;;;;;;;19.67;7.32;;;;;;;;;;5054625;28;20049;-65
2022/03/08 07:43:49;;;;;;;34.35;7.70;;;;;;;;;;5068529;28;20028;-63
2022/03/08 07:46:15;;;;;;;32.25;7.82;;;;;;;;;;5074410;28;20037;-59
2022/03/08 07:48:41;;;;;;;32.30;7.53;;;;;;;;;;5064630;28;20175;-60
2022/03/08 07:51:07;;;;;;;24.50;7.07;;;;;;;;;;5055321;28;20025;-63
2022/03/08 07:53:34;;;;;;;33.25;7.28;;;;;;;;;;5054387;28;20482;-61
2022/03/08 07:56:00;;;;;;;23.80;6.40;;;;;;;;;;5054167;28;20029;-62
2022/03/08 07:58:26;;;;;;;29.05;6.90;;;;;;;;;;5056688;28;20029;-60
2022/03/08 08:00:51;;;;;;;25.50;6.72;;;;;;;;;;5052248;28;20115;-65
2022/03/08 08:03:18;;;;;;;20.38;6.60;;;;;;;;;;5074074;28;20046;-65
2022/03/08 08:05:44;;;;;;;24.25;6.85;;;;;;;;;;5058642;28;20032;-64
2022/03/08 08:08:10;;;;;;;22.67;6.35;;;;;;;;;;5054309;28;20031;-66
2022/03/08 08:10:36;;;;;;;23.70;6.30;;;;;;;;;;5052896;28;20025;-60
2022/03/08 08:13:02;;;;;;;27.02;6.75;;;;;;;;;;5063730;28;20017;-59
2022/03/08 08:15:29;;;;;;;19.77;6.13;;;;;;;;;;5071738;28;20082;-61
2022/03/08 08:17:55;;;;;;;22.80;6.10;;;;;;;;;;5070265;28;20507;-72
2022/03/08 08:20:21;;;;;;;21.30;5.72;;;;;;;;;;5073760;28;20037;-63
2022/03/08 08:22:47;;;;;;;20.70;5.50;;;;;;;;;;5073765;28;20063;-57
2022/03/08 08:25:13;;;;;;;19.60;5.68;;;;;;;;;;5069935;28;20039;-57
2022/03/08 08:27:39;;;;;;;17.08;5.55;;;;;;;;;;5066468;28;20032;-57
2022/03/08 08:30:12;;;;;;;16.23;5.95;;;;;;;;;;5069681;28;20036;-62
2022/03/08 08:32:38;;;;;;;16.23;5.47;;;;;;;;;;5055062;28;20032;-62
2022/03/08 08:35:05;;;;;;;16.63;5.20;;;;;;;;;;5063494;28;20021;-67
2022/03/08 08:37:31;;;;;;;19.77;5.57;;;;;;;;;;5069496;28;20028;-63
2022/03/08 08:39:57;;;;;;;20.83;5.75;;;;;;;;;;5054263;28;20096;-58
2022/03/08 08:42:23;;;;;;;20.35;5.90;;;;;;;;;;5060810;28;20163;-64
2022/03/08 08:44:49;;;;;;;26.23;6.88;;;;;;;;;;5055405;28;20017;-67
2022/03/08 08:47:15;;;;;;;24.02;6.47;;;;;;;;;;5053760;28;20036;-61
2022/03/08 08:49:41;;;;;;;21.00;6.53;;;;;;;;;;5056539;28;20033;-66
2022/03/08 08:52:07;;;;;;;20.10;6.72;;;;;;;;;;5068458;28;20029;-59
2022/03/08 08:54:33;;;;;;;22.60;6.80;;;;;;;;;;5058541;28;20028;-60
2022/03/08 08:56:59;;;;;;;23.45;7.15;;;;;;;;;;5062565;28;20087;-65
2022/03/08 08:59:25;;;;;;;20.83;7.30;;;;;;;;;;5057277;28;20025;-70
2022/03/08 09:01:51;;;;;;;26.10;6.97;;;;;;;;;;5067676;28;20396;-60
2022/03/08 09:04:17;;;;;;;22.25;6.95;;;;;;;;;;5055307;28;20481;-59
2022/03/08 09:06:43;;;;;;;19.00;6.88;;;;;;;;;;5059040;28;20074;-58
2022/03/08 09:09:10;;;;;;;19.70;6.65;;;;;;;;;;5056474;28;20463;-58
2022/03/08 09:11:36;;;;;;;55.05;8.40;;;;;;;;;;5063096;28;20456;-58
2022/03/08 09:14:04;;;;;;;93.32;10.68;;;;;;;;;;5062866;28;20056;-58
2022/03/08 09:16:30;;;;;;;118.35;11.00;;;;;;;;;;5058141;28;20037;-58
2022/03/08 09:18:56;;;;;;;107.18;11.00;;;;;;;;;;5058869;28;20024;-59
2022/03/08 09:21:23;;;;;;;96.13;9.90;;;;;;;;;;5064485;28;20037;-58
2022/03/08 09:23:49;;;;;;;78.70;8.60;;;;;;;;;;5057692;28;20027;-57
2022/03/08 09:26:15;;;;;;;85.28;8.38;;;;;;;;;;5057986;28;20523;-57
2022/03/08 09:28:41;;;;;;;86.50;8.98;;;;;;;;;;5054918;28;20024;-57
2022/03/08 09:31:07;;;;;;;57.28;8.25;;;;;;;;;;5055527;28;20086;-57
2022/03/08 09:33:33;;;;;;;46.80;7.43;;;;;;;;;;5055874;28;20427;-57
2022/03/08 09:35:59;;;;;;;47.20;8.90;;;;;;;;;;5055952;28;20486;-57
2022/03/08 09:38:26;;;;;;;38.22;6.70;;;;;;;;;;5066408;28;20017;-61
2022/03/08 09:40:53;;;;;;;41.03;7.38;;;;;;;;;;5050034;28;20086;-62
2022/03/08 09:43:19;;;;;;;42.60;7.28;;;;;;;;;;5052604;28;20029;-60
2022/03/08 09:45:45;;;;;;;34.63;7.22;;;;;;;;;;5052091;28;20535;-61
2022/03/08 09:48:11;;;;;;;27.27;6.57;;;;;;;;;;5051842;28;20054;-63
2022/03/08 09:50:37;;;;;;;21.65;6.57;;;;;;;;;;5054709;28;20112;-63
2022/03/08 09:53:04;;;;;;;28.40;7.65;;;;;;;;;;5054879;28;20033;-59
2022/03/08 09:55:30;;;;;;;23.13;7.13;;;;;;;;;;5059911;28;20079;-60
2022/03/08 09:57:56;;;;;;;22.25;6.90;;;;;;;;;;5042289;28;20037;-62
2022/03/08 10:00:23;;;;;;;19.50;6.75;;;;;;;;;;5047271;28;20031;-60
2022/03/08 10:02:54;;;;;;;65.40;8.75;;;;;;;;;;5056328;28;20037;-58
2022/03/08 10:05:23;;;;;;;36.20;7.77;;;;;;;;;;5059934;28;20048;-59
2022/03/08 10:08:02;;;;;;;28.25;7.55;;;;;;;;;;5060706;28;20258;-60
2022/03/08 10:10:31;;;;;;;19.92;6.85;;;;;;;;;;5057930;28;20033;-60
2022/03/08 10:12:57;;;;;;;19.77;7.97;;;;;;;;;;5051811;28;20385;-60
2022/03/08 10:15:23;;;;;;;19.05;6.60;;;;;;;;;;5049441;28;20036;-60
2022/03/08 10:17:49;;;;;;;19.67;6.18;;;;;;;;;;5046346;28;20025;-61
2022/03/08 10:20:28;;;;;;;20.25;6.20;;;;;;;;;;5065052;28;20037;-61
2022/03/08 10:22:54;;;;;;;18.40;6.13;;;;;;;;;;5062921;28;20036;-59
2022/03/08 10:25:22;;;;;;;18.25;6.35;;;;;;;;;;5059579;28;20032;-63
2022/03/08 10:27:54;;;;;;;20.30;5.80;;;;;;;;;;5069238;28;20082;-59
2022/03/08 10:30:21;;;;;;;21.48;5.78;;;;;;;;;;5059944;28;20032;-59
2022/03/08 10:32:48;;;;;;;18.48;5.88;;;;;;;;;;5062116;28;20032;-61
2022/03/08 10:35:23;;;;;;;20.50;5.60;;;;;;;;;;5056662;28;20028;-60
2022/03/08 10:37:49;;;;;;;17.42;5.38;;;;;;;;;;5066460;28;20027;-59
2022/03/08 10:40:22;;;;;;;18.70;5.57;;;;;;;;;;5058476;28;20038;-62
2022/03/08 10:43:00;;;;;;;15.48;5.20;;;;;;;;;;5057012;28;20031;-61
2022/03/08 10:45:27;;;;;;;20.17;5.45;;;;;;;;;;5060192;28;20100;-60
2022/03/08 10:47:53;;;;;;;16.15;5.25;;;;;;;;;;5047809;28;20066;-59
2022/03/08 10:50:23;;;;;;;16.55;5.20;;;;;;;;;;5060831;28;20025;-66
2022/03/08 10:52:50;;;;;;;17.00;5.10;;;;;;;;;;5064152;28;20049;-60
2022/03/08 10:55:16;;;;;;;20.23;5.30;;;;;;;;;;5059433;28;20036;-64
2022/03/08 10:57:43;;;;;;;16.02;5.30;;;;;;;;;;5060618;28;20528;-63
2022/03/08 11:00:15;;;;;;;20.48;5.50;;;;;;;;;;5067602;28;20465;-63
2022/03/08 11:02:40;;;;;;;;;;;;;;;;;;5068788;28;20046;-61
2022/03/08 11:05:10;;;;;;;43.15;21.45;;;;;;;;;;5067731;28;19908;-62
2022/03/08 11:07:37;;;;;;;35.15;16.52;;;;;;;;;;5055827;28;20078;-61
2022/03/08 11:10:03;;;;;;;31.08;11.38;;;;;;;;;;5061354;28;20029;-62
2022/03/08 11:12:29;;;;;;;29.38;9.95;;;;;;;;;;5058705;28;20031;-60
2022/03/08 11:14:55;;;;;;;20.25;7.60;;;;;;;;;;5059570;28;20021;-60
2022/03/08 11:17:23;;;;;;;19.95;7.15;;;;;;;;;;5059192;28;20143;-62
2022/03/08 11:19:49;;;;;;;23.73;7.10;;;;;;;;;;5062478;28;20035;-59
2022/03/08 11:22:17;;;;;;;117.38;82.78;;;;;;;;;;5060386;28;20049;-61
2022/03/08 11:24:43;;;;;;;103.57;67.35;;;;;;;;;;5041936;28;20065;-59
2022/03/08 11:27:09;;;;;;;51.13;39.78;;;;;;;;;;5053972;28;20033;-58
2022/03/08 11:29:36;;;;;;;99.30;71.30;;;;;;;;;;5071843;28;20020;-59
2022/03/08 11:32:03;;;;;;;37.80;23.20;;;;;;;;;;5054752;28;20029;-59
2022/03/08 11:34:34;;;;;;;25.40;12.30;;;;;;;;;;5066409;28;20470;-66
2022/03/08 11:37:03;;;;;;;29.52;16.42;;;;;;;;;;5039864;28;20021;-71
2022/03/08 11:39:29;;;;;;;22.58;10.77;;;;;;;;;;5061369;28;20032;-69
2022/03/08 11:41:55;;;;;;;26.92;16.75;;;;;;;;;;5058338;28;20072;-65
2022/03/08 11:44:22;;;;;;;32.85;17.77;;;;;;;;;;5058090;28;20469;-65
2022/03/08 11:47:07;;;;;;;24.30;11.85;;;;;;;;;;5062794;28;20032;-69
2022/03/08 11:49:40;;;;;;;23.60;11.23;;;;;;;;;;5063810;28;20109;-64
2022/03/08 11:52:35;;;;;;;20.73;9.02;;;;;;;;;;5064052;28;20048;-57
2022/03/08 11:55:06;;;;;;;20.95;8.30;;;;;;;;;;5048585;28;20044;-65
2022/03/08 11:57:44;;;;;;;21.35;7.43;;;;;;;;;;5062322;28;20025;-64
2022/03/08 12:00:29;;;;;;;19.15;7.55;;;;;;;;;;5063159;28;20033;-68
2022/03/08 12:02:57;;;;;;;19.33;6.53;;;;;;;;;;5060231;28;20029;-61
2022/03/08 12:05:38;;;;;;;18.75;6.78;;;;;;;;;;5056143;28;20032;-64
2022/03/08 12:08:23;;;;;;;22.38;6.78;;;;;;;;;;5064562;28;20036;-58
2022/03/08 12:10:49;;;;;;;19.67;6.50;;;;;;;;;;5063713;28;20012;-62
2022/03/08 12:13:16;;;;;;;18.88;6.10;;;;;;;;;;5060392;28;20504;-62
2022/03/08 12:16:01;;;;;;;18.67;6.10;;;;;;;;;;5061507;28;20092;-64
2022/03/08 12:18:37;;;;;;;20.45;7.47;;;;;;;;;;5061958;28;20454;-59
2022/03/08 12:21:19;;;;;;;21.83;7.05;;;;;;;;;;5060045;28;20128;-62
2022/03/08 12:23:51;;;;;;;21.08;7.07;;;;;;;;;;5061567;28;20031;-64
2022/03/08 12:26:39;;;;;;;18.17;6.55;;;;;;;;;;5062925;28;20084;-60
2022/03/08 12:29:05;;;;;;;18.52;6.40;;;;;;;;;;5060348;28;20039;-61
2022/03/08 12:31:31;;;;;;;18.75;6.28;;;;;;;;;;5057061;28;20478;-59
2022/03/08 12:34:01;;;;;;;21.00;6.70;;;;;;;;;;5036769;28;20492;-63
2022/03/08 12:36:27;;;;;;;22.48;6.60;;;;;;;;;;5069066;28;20056;-63
2022/03/08 12:38:54;;;;;;;20.70;6.60;;;;;;;;;;5046001;28;20393;-61
2022/03/08 12:41:26;;;;;;;20.83;6.55;;;;;;;;;;5071102;28;20040;-62
2022/03/08 12:43:59;;;;;;;23.55;6.85;;;;;;;;;;5073888;28;20078;-62
2022/03/08 12:46:25;;;;;;;16.35;5.88;;;;;;;;;;5041459;28;20358;-61
2022/03/08 12:48:54;;;;;;;19.65;5.90;;;;;;;;;;5051225;28;20116;-60
2022/03/08 12:51:24;;;;;;;18.02;5.63;;;;;;;;;;5037946;28;20079;-60
2022/03/08 12:53:57;;;;;;;20.15;6.43;;;;;;;;;;5036146;28;20119;-59
2022/03/08 12:56:24;;;;;;;19.48;6.40;;;;;;;;;;5064202;28;20496;-61
2022/03/08 12:58:50;;;;;;;20.88;6.28;;;;;;;;;;5056320;28;20086;-60
2022/03/08 13:01:16;;;;;;;19.33;5.78;;;;;;;;;;5068005;28;20448;-62
2022/03/08 13:03:43;;;;;;;17.73;5.70;;;;;;;;;;5055772;28;20041;-61
2022/03/08 13:06:10;;;;;;;18.25;5.53;;;;;;;;;;5068636;28;20028;-58
2022/03/08 13:08:37;;;;;;;16.35;5.32;;;;;;;;;;5060964;28;20051;-59
2022/03/08 13:11:05;;;;;;;17.50;5.72;;;;;;;;;;5063642;28;20086;-59
2022/03/08 13:13:31;;;;;;;19.25;6.15;;;;;;;;;;5060075;28;20017;-59
2022/03/08 13:15:57;;;;;;;17.35;5.97;;;;;;;;;;5057052;28;20032;-60
2022/03/08 13:18:27;;;;;;;17.25;6.15;;;;;;;;;;5061104;28;20036;-60
2022/03/08 13:20:54;;;;;;;15.32;5.45;;;;;;;;;;5059847;28;20033;-58
2022/03/08 13:23:25;;;;;;;18.50;5.50;;;;;;;;;;5055596;28;20036;-60
2022/03/08 13:25:58;;;;;;;16.73;5.75;;;;;;;;;;5067808;28;20021;-58
2022/03/08 13:28:28;;;;;;;17.50;6.00;;;;;;;;;;5063751;28;20032;-58
2022/03/08 13:30:55;;;;;;;18.15;5.97;;;;;;;;;;5058404;28;20433;-57
2022/03/08 13:33:21;;;;;;;17.60;5.82;;;;;;;;;;5053925;28;20033;-59
2022/03/08 13:35:49;;;;;;;16.35;5.70;;;;;;;;;;5069424;28;20099;-63
2022/03/08 13:38:16;;;;;;;16.63;5.97;;;;;;;;;;5065121;28;20035;-59
2022/03/08 13:40:43;;;;;;;17.73;6.00;;;;;;;;;;5038019;28;20430;-63
2022/03/08 13:43:09;;;;;;;19.35;6.13;;;;;;;;;;5055990;28;20028;-61
2022/03/08 13:45:36;;;;;;;19.05;6.10;;;;;;;;;;5063487;28;20020;-59
2022/03/08 13:48:03;;;;;;;18.95;5.78;;;;;;;;;;5057805;28;20033;-59
2022/03/08 13:50:30;;;;;;;19.40;6.20;;;;;;;;;;5057874;28;20024;-59
2022/03/08 13:52:57;;;;;;;16.95;5.63;;;;;;;;;;5069005;28;20029;-63
2022/03/08 13:55:27;;;;;;;17.35;6.20;;;;;;;;;;5066737;28;20032;-59
2022/03/08 13:57:57;;;;;;;17.98;5.90;;;;;;;;;;5056496;28;20032;-58
2022/03/08 14:00:27;;;;;;;18.85;6.45;;;;;;;;;;5059125;28;20490;-58
2022/03/08 14:02:57;;;;;;;23.75;6.53;;;;;;;;;;5059655;28;20033;-61
2022/03/08 14:05:23;;;;;;;24.17;8.52;;;;;;;;;;5060716;28;20359;-62
2022/03/08 14:08:10;;;;;;;25.27;8.20;;;;;;;;;;5062212;28;20722;-64
2022/03/08 14:10:51;;;;;;;19.90;6.88;;;;;;;;;;5046705;28;20173;-67
2022/03/08 14:13:17;;;;;;;18.23;5.88;;;;;;;;;;5057783;28;20032;-63
2022/03/08 14:16:00;;;;;;;17.08;5.95;;;;;;;;;;5065313;28;20077;-65
2022/03/08 14:18:26;;;;;;;19.17;6.40;;;;;;;;;;5053473;28;20029;-66
2022/03/08 14:20:52;;;;;;;19.23;5.80;;;;;;;;;;5052423;28;20563;-69
2022/03/08 14:23:18;;;;;;;21.80;5.78;;;;;;;;;;5035724;28;20068;-65